createdAt,value
2022-10-15T00:01:28.192Z,53.45
2022-10-15T00:03:55.948Z,53.58
2022-10-15T00:06:23.766Z,53.50
2022-10-15T00:08:51.839Z,53.90
2022-10-15T00:11:22.321Z,53.22
2022-10-15T00:13:50.783Z,51.30
2022-10-15T00:16:21.273Z,53.47
2022-10-15T00:18:52.045Z,51.58
2022-10-15T00:21:21.633Z,51.35
2022-10-15T00:23:50.090Z,51.53
2022-10-15T00:26:23.981Z,50.50
2022-10-15T00:31:26.531Z,50.65
2022-10-15T00:33:57.201Z,51.63
2022-10-15T00:36:28.166Z,52.45
2022-10-15T00:38:56.779Z,50.45
2022-10-15T00:41:29.565Z,50.40
2022-10-15T00:44:00.743Z,51.53
2022-10-15T00:46:42.871Z,52.45
2022-10-15T00:49:23.213Z,50.90
2022-10-15T00:52:27.068Z,51.55
2022-10-15T00:55:06.817Z,51.25
2022-10-15T00:57:34.810Z,51.17
2022-10-15T01:00:11.700Z,53.53
2022-10-15T01:02:41.423Z,51.53
2022-10-15T01:05:10.590Z,53.17
2022-10-15T01:07:41.025Z,52.75
2022-10-15T01:10:11.129Z,52.72
2022-10-15T01:13:03.830Z,52.42
2022-10-15T01:15:41.838Z,49.85
2022-10-15T01:18:22.479Z,51.35
2022-10-15T01:20:58.703Z,52.50
2022-10-15T01:23:29.238Z,52.78
2022-10-15T01:26:21.854Z,52.00
2022-10-15T01:29:14.302Z,51.55
2022-10-15T01:32:02.573Z,50.15
2022-10-15T01:34:51.543Z,50.97
2022-10-15T01:37:29.009Z,51.47
2022-10-15T01:40:07.725Z,51.72
2022-10-15T01:42:47.184Z,49.97
2022-10-15T01:45:25.863Z,49.03
2022-10-15T01:48:14.666Z,51.47
2022-10-15T01:50:53.179Z,49.95
2022-10-15T01:53:26.832Z,51.38
2022-10-15T01:55:59.175Z,49.65
2022-10-15T01:58:29.788Z,50.15
2022-10-15T02:00:59.491Z,52.13
2022-10-15T02:03:27.464Z,52.22
2022-10-15T02:06:06.111Z,51.47
2022-10-15T02:08:50.549Z,51.67
2022-10-15T02:11:19.789Z,49.65
2022-10-15T02:14:09.758Z,51.58
2022-10-15T02:16:43.583Z,49.25
2022-10-15T02:19:51.896Z,51.83
2022-10-15T02:22:34.856Z,50.40
2022-10-15T02:25:09.174Z,50.83
2022-10-15T02:30:09.978Z,50.00
2022-10-15T02:32:40.867Z,52.00
2022-10-15T02:35:12.064Z,52.30
2022-10-15T02:42:45.742Z,46.72
2022-10-15T02:45:13.489Z,51.80
2022-10-15T02:47:42.433Z,50.00
2022-10-15T02:50:10.387Z,52.72
2022-10-15T02:52:38.208Z,50.55
2022-10-15T02:55:07.197Z,49.25
2022-10-15T02:57:34.946Z,49.85
2022-10-15T03:00:04.469Z,48.53
2022-10-15T03:02:32.957Z,49.45
2022-10-15T03:05:00.671Z,49.47
2022-10-15T03:07:28.370Z,47.45
2022-10-15T03:09:57.916Z,50.22
2022-10-15T03:12:26.136Z,46.28
2022-10-15T03:14:55.151Z,49.40
2022-10-15T03:17:23.849Z,47.97
2022-10-15T03:19:51.739Z,50.38
2022-10-15T03:22:19.566Z,49.88
2022-10-15T03:24:51.525Z,50.60
2022-10-15T03:27:25.405Z,50.60
2022-10-15T03:29:54.605Z,49.60
2022-10-15T03:32:24.443Z,51.47
2022-10-15T03:34:52.850Z,51.53
2022-10-15T03:37:22.035Z,51.20
2022-10-15T03:39:50.268Z,51.60
2022-10-15T03:42:19.544Z,54.78
2022-10-15T03:44:47.974Z,49.70
2022-10-15T03:47:19.258Z,50.63
2022-10-15T03:49:49.391Z,50.90
2022-10-15T03:52:17.812Z,49.78
2022-10-15T03:54:47.410Z,50.50
2022-10-15T03:57:18.233Z,49.38
2022-10-15T03:59:50.942Z,53.55
2022-10-15T04:02:20.060Z,51.88
2022-10-15T04:04:47.867Z,51.45
2022-10-15T04:07:15.623Z,49.55
2022-10-15T04:09:43.472Z,51.22
2022-10-15T04:12:23.051Z,48.33
2022-10-15T04:14:51.533Z,49.75
2022-10-15T04:17:19.505Z,51.97
2022-10-15T04:19:47.226Z,47.80
2022-10-15T04:22:16.651Z,48.22
2022-10-15T04:24:49.693Z,50.05
2022-10-15T04:27:27.129Z,50.38
2022-10-15T04:30:01.564Z,51.60
2022-10-15T04:32:29.758Z,52.28
2022-10-15T04:34:57.725Z,53.30
2022-10-15T04:37:40.627Z,52.17
2022-10-15T04:40:12.932Z,51.97
2022-10-15T04:42:40.929Z,52.05
2022-10-15T04:45:09.600Z,52.08
2022-10-15T04:47:38.167Z,50.78
2022-10-15T04:52:59.308Z,50.90
2022-10-15T04:55:28.993Z,50.47
2022-10-15T04:58:00.064Z,52.63
2022-10-15T05:00:31.604Z,52.78
2022-10-15T05:03:19.924Z,53.00
2022-10-15T05:06:03.630Z,51.92
2022-10-15T05:08:33.643Z,51.25
2022-10-15T05:11:10.251Z,52.42
2022-10-15T05:13:38.383Z,50.50
2022-10-15T05:16:13.299Z,52.25
2022-10-15T05:18:43.195Z,52.45
2022-10-15T05:21:12.318Z,52.28
2022-10-15T05:23:41.046Z,51.35
2022-10-15T05:26:29.706Z,54.35
2022-10-15T05:28:59.257Z,55.17
2022-10-15T05:31:32.755Z,63.33
2022-10-15T05:34:14.608Z,61.80
2022-10-15T05:39:16.998Z,55.63
2022-10-15T05:41:46.252Z,53.38
2022-10-15T05:44:15.302Z,55.08
2022-10-15T05:46:43.052Z,53.65
2022-10-15T05:49:16.718Z,53.45
2022-10-15T05:51:52.912Z,53.65
2022-10-15T05:54:40.773Z,56.97
2022-10-15T05:57:08.497Z,54.67
2022-10-15T05:59:36.205Z,53.05
2022-10-15T06:02:04.117Z,53.47
2022-10-15T06:04:35.485Z,54.47
2022-10-15T06:07:03.781Z,53.35
2022-10-15T06:09:31.783Z,53.15
2022-10-15T06:11:59.428Z,53.20
2022-10-15T06:14:27.211Z,52.40
2022-10-15T06:16:55.090Z,50.75
2022-10-15T06:19:22.795Z,53.08
2022-10-15T06:21:50.511Z,56.75
2022-10-15T06:24:18.380Z,58.70
2022-10-15T06:26:46.104Z,58.33
2022-10-15T06:29:13.931Z,58.78
2022-10-15T06:31:41.963Z,57.50
2022-10-15T06:34:09.619Z,56.13
2022-10-15T06:36:38.076Z,53.38
2022-10-15T06:39:05.995Z,51.90
2022-10-15T06:41:33.763Z,49.85
2022-10-15T06:44:01.465Z,50.15
2022-10-15T06:46:29.491Z,49.95
2022-10-15T06:48:57.621Z,51.33
2022-10-15T06:51:25.312Z,52.33
2022-10-15T06:53:53.263Z,49.88
2022-10-15T06:56:20.984Z,50.05
2022-10-15T06:58:48.683Z,51.78
2022-10-15T07:01:17.259Z,52.05
2022-10-15T07:03:45.234Z,51.95
2022-10-15T07:06:12.974Z,52.88
2022-10-15T07:08:41.506Z,51.33
2022-10-15T07:11:09.660Z,50.72
2022-10-15T07:13:38.249Z,50.65
2022-10-15T07:16:08.601Z,48.30
2022-10-15T07:18:38.180Z,48.92
2022-10-15T07:21:08.086Z,50.53
2022-10-15T07:23:36.070Z,48.30
2022-10-15T07:26:03.795Z,49.50
2022-10-15T07:28:31.626Z,50.00
2022-10-15T07:31:05.024Z,49.30
2022-10-15T07:33:35.690Z,46.72
2022-10-15T07:36:05.669Z,41.45
2022-10-15T07:38:34.270Z,36.95
2022-10-15T07:41:04.253Z,33.42
2022-10-15T07:43:34.627Z,30.42
2022-10-15T07:46:02.711Z,28.67
2022-10-15T07:48:30.629Z,26.77
2022-10-15T07:51:00.634Z,27.00
2022-10-15T07:53:29.858Z,26.90
2022-10-15T07:56:02.505Z,27.55
2022-10-15T07:58:34.716Z,26.75
2022-10-15T08:01:07.912Z,26.70
2022-10-15T08:03:36.636Z,27.20
2022-10-15T08:06:07.501Z,26.10
2022-10-15T08:08:36.802Z,27.60
2022-10-15T08:11:10.489Z,25.92
2022-10-15T08:13:42.381Z,27.38
2022-10-15T08:16:12.472Z,27.20
2022-10-15T08:18:40.844Z,27.13
2022-10-15T08:21:09.078Z,27.35
2022-10-15T08:23:37.170Z,27.42
2022-10-15T08:26:05.332Z,28.20
2022-10-15T08:28:35.133Z,27.73
2022-10-15T08:31:05.637Z,26.77
2022-10-15T08:33:35.704Z,26.63
2022-10-15T08:36:05.795Z,25.50
2022-10-15T08:38:34.274Z,25.13
2022-10-15T08:41:05.864Z,26.30
2022-10-15T08:43:42.786Z,26.30
2022-10-15T08:46:31.618Z,26.17
2022-10-15T08:49:01.605Z,26.52
2022-10-15T08:51:47.098Z,25.63
2022-10-15T08:54:18.721Z,23.98
2022-10-15T08:56:54.838Z,23.38
2022-10-15T08:59:28.650Z,23.25
2022-10-15T09:02:20.589Z,23.80
2022-10-15T09:05:21.405Z,22.20
2022-10-15T09:07:56.616Z,21.63
2022-10-15T09:10:32.992Z,21.50
2022-10-15T09:13:24.059Z,21.77
2022-10-15T09:15:57.284Z,20.42
2022-10-15T09:18:28.807Z,20.85
2022-10-15T09:20:58.343Z,21.42
2022-10-15T09:23:29.793Z,20.05
2022-10-15T09:25:57.647Z,20.48
2022-10-15T09:28:36.085Z,20.17
2022-10-15T09:31:05.648Z,20.25
2022-10-15T09:34:02.022Z,20.95
2022-10-15T09:36:54.823Z,21.52
2022-10-15T09:39:50.565Z,20.38
2022-10-15T09:42:39.346Z,22.38
2022-10-15T09:45:12.460Z,22.73
2022-10-15T09:47:42.333Z,21.25
2022-10-15T09:50:14.789Z,21.92
2022-10-15T09:53:04.012Z,20.67
2022-10-15T09:55:42.933Z,20.77
2022-10-15T09:58:25.252Z,20.80
2022-10-15T10:00:57.971Z,20.45
2022-10-15T10:03:29.022Z,21.20
2022-10-15T10:06:07.108Z,20.83
2022-10-15T10:08:59.422Z,20.98
2022-10-15T10:11:46.020Z,20.55
2022-10-15T10:14:25.495Z,21.38
2022-10-15T10:17:16.424Z,20.23
2022-10-15T10:19:46.433Z,21.13
2022-10-15T10:22:20.137Z,21.15
2022-10-15T10:24:48.619Z,20.38
2022-10-15T10:27:34.983Z,20.50
2022-10-15T10:30:07.099Z,19.70
2022-10-15T10:32:35.956Z,20.25
2022-10-15T10:35:05.758Z,20.23
2022-10-15T10:37:43.717Z,18.60
2022-10-15T10:40:32.320Z,18.63
2022-10-15T10:43:17.169Z,19.88
2022-10-15T10:45:59.776Z,20.23
2022-10-15T10:48:41.590Z,19.25
2022-10-15T10:51:19.599Z,19.05
2022-10-15T10:54:03.401Z,19.73
2022-10-15T10:56:38.120Z,19.58
2022-10-15T10:59:37.081Z,18.63
2022-10-15T11:02:11.158Z,18.55
2022-10-15T11:04:40.146Z,18.23
2022-10-15T11:07:14.742Z,18.88
2022-10-15T11:09:56.297Z,18.60
2022-10-15T11:12:27.472Z,17.92
2022-10-15T11:15:21.510Z,18.33
2022-10-15T11:17:55.735Z,18.27
2022-10-15T11:23:45.903Z,18.08
2022-10-15T11:26:16.474Z,17.13
2022-10-15T11:29:06.413Z,18.02
2022-10-15T11:32:01.665Z,16.85
2022-10-15T11:34:46.547Z,17.08
2022-10-15T11:37:17.462Z,17.98
2022-10-15T11:40:11.455Z,17.30
2022-10-15T11:42:44.988Z,17.20
2022-10-15T11:45:15.960Z,16.38
2022-10-15T11:47:58.545Z,16.73
2022-10-15T11:50:32.541Z,16.50
2022-10-15T11:53:06.317Z,17.65
2022-10-15T11:55:52.267Z,16.38
2022-10-15T11:58:36.060Z,17.10
2022-10-15T12:01:28.938Z,16.45
2022-10-15T12:04:11.908Z,16.98
2022-10-15T12:06:48.886Z,16.40
2022-10-15T12:09:26.105Z,15.98
2022-10-15T12:12:07.446Z,16.27
2022-10-15T12:15:03.986Z,15.63
2022-10-15T12:17:43.403Z,16.27
2022-10-15T12:20:17.535Z,16.20
2022-10-15T12:22:50.125Z,15.57
2022-10-15T12:25:35.782Z,15.93
2022-10-15T12:28:16.883Z,15.65
2022-10-15T12:31:03.917Z,15.65
2022-10-15T12:33:36.576Z,15.63
2022-10-15T12:36:30.879Z,16.50
2022-10-15T12:39:07.807Z,15.40
2022-10-15T12:41:48.953Z,16.17
2022-10-15T12:44:32.418Z,16.70
2022-10-15T12:47:00.670Z,15.73
2022-10-15T12:49:32.225Z,16.10
2022-10-15T12:52:02.859Z,15.75
2022-10-15T12:54:44.242Z,16.35
2022-10-15T12:57:34.644Z,17.63
2022-10-15T13:00:23.438Z,16.40
2022-10-15T13:03:01.088Z,16.27
2022-10-15T13:05:33.099Z,16.45
2022-10-15T13:08:12.070Z,16.83
2022-10-15T13:10:47.231Z,16.63
2022-10-15T13:13:29.319Z,16.05
2022-10-15T13:16:02.756Z,16.58
2022-10-15T13:18:31.883Z,16.83
2022-10-15T13:23:34.790Z,17.25
2022-10-15T13:26:12.966Z,17.20
2022-10-15T13:28:42.704Z,16.80
2022-10-15T13:31:28.977Z,18.27
2022-10-15T13:34:21.608Z,17.05
2022-10-15T13:36:50.124Z,16.92
2022-10-15T13:39:38.580Z,17.75
2022-10-15T13:42:24.124Z,17.73
2022-10-15T13:45:03.251Z,17.05
2022-10-15T13:47:41.159Z,17.15
2022-10-15T13:50:19.575Z,17.45
2022-10-15T13:53:17.770Z,18.27
2022-10-15T13:55:54.563Z,17.30
2022-10-15T13:58:30.206Z,16.55
2022-10-15T14:01:10.141Z,17.83
2022-10-15T14:03:46.364Z,17.83
2022-10-15T14:06:34.858Z,17.75
2022-10-15T14:09:25.060Z,17.52
2022-10-15T14:12:00.543Z,18.05
2022-10-15T14:14:41.688Z,18.42
2022-10-15T14:17:17.384Z,18.08
2022-10-15T14:20:25.667Z,17.85
2022-10-15T14:22:50.022Z,18.23
2022-10-15T14:25:23.563Z,17.52
2022-10-15T14:27:52.215Z,18.30
2022-10-15T14:30:35.859Z,19.02
2022-10-15T14:33:03.967Z,17.77
2022-10-15T14:35:35.261Z,18.55
2022-10-15T14:38:05.763Z,19.10
2022-10-15T14:40:33.814Z,18.20
2022-10-15T14:43:06.812Z,19.25
2022-10-15T14:45:54.657Z,19.30
2022-10-15T14:48:38.838Z,18.38
2022-10-15T14:51:14.616Z,18.98
2022-10-15T14:53:47.707Z,20.00
2022-10-15T14:56:22.806Z,19.07
2022-10-15T14:58:54.780Z,19.67
2022-10-15T15:01:23.397Z,20.02
2022-10-15T15:03:53.562Z,19.83
2022-10-15T15:06:21.701Z,20.38
2022-10-15T15:08:49.642Z,20.23
2022-10-15T15:11:25.343Z,19.67
2022-10-15T15:13:54.148Z,20.33
2022-10-15T15:16:22.472Z,20.52
2022-10-15T15:18:50.176Z,20.15
2022-10-15T15:21:22.497Z,20.02
2022-10-15T15:23:50.628Z,20.25
2022-10-15T15:26:18.536Z,20.73
2022-10-15T15:28:46.297Z,21.27
2022-10-15T15:31:18.829Z,20.95
2022-10-15T15:33:46.622Z,19.75
2022-10-15T15:36:20.576Z,19.77
2022-10-15T15:38:51.244Z,21.38
2022-10-15T15:41:24.444Z,20.92
2022-10-15T15:43:53.537Z,20.05
2022-10-15T15:46:21.487Z,21.88
2022-10-15T15:48:49.179Z,21.48
2022-10-15T15:51:25.498Z,21.05
2022-10-15T15:53:53.685Z,20.75
2022-10-15T15:56:22.735Z,22.20
2022-10-15T15:58:51.346Z,22.42
2022-10-15T16:01:20.492Z,21.75
2022-10-15T16:03:48.583Z,21.83
2022-10-15T16:06:16.508Z,22.25
2022-10-15T16:08:44.186Z,22.35
2022-10-15T16:11:12.141Z,22.92
2022-10-15T16:13:40.924Z,22.67
2022-10-15T16:16:09.392Z,22.30
2022-10-15T16:18:37.841Z,22.40
2022-10-15T16:21:05.915Z,22.10
2022-10-15T16:23:33.755Z,21.63
2022-10-15T16:26:01.682Z,22.58
2022-10-15T16:28:29.441Z,22.83
2022-10-15T16:31:40.130Z,21.67
2022-10-15T16:34:09.442Z,21.48
2022-10-15T16:36:37.284Z,21.80
2022-10-15T16:39:05.022Z,21.00
2022-10-15T16:41:33.121Z,22.00
2022-10-15T16:44:00.985Z,21.42
2022-10-15T16:46:28.922Z,21.20
2022-10-15T16:48:57.853Z,22.20
2022-10-15T16:51:26.326Z,21.25
2022-10-15T16:53:57.480Z,22.17
2022-10-15T16:56:28.263Z,22.02
2022-10-15T16:58:57.188Z,22.05
2022-10-15T17:01:28.383Z,22.95
2022-10-15T17:03:57.800Z,21.83
2022-10-15T17:06:29.236Z,21.67
2022-10-15T17:08:59.748Z,21.20
2022-10-15T17:11:30.669Z,21.08
2022-10-15T17:14:00.558Z,22.23
2022-10-15T17:16:30.999Z,22.33
2022-10-15T17:18:59.072Z,22.00
2022-10-15T17:21:29.964Z,22.67
2022-10-15T17:24:00.095Z,23.05
2022-10-15T17:26:33.381Z,22.42
2022-10-15T17:29:01.029Z,23.08
2022-10-15T17:31:30.283Z,24.48
2022-10-15T17:34:00.825Z,24.08
2022-10-15T17:36:31.657Z,24.15
2022-10-15T17:38:59.898Z,26.15
2022-10-15T17:41:30.449Z,25.23
2022-10-15T17:43:58.685Z,26.45
2022-10-15T17:46:29.169Z,26.23
2022-10-15T17:48:58.423Z,26.35
2022-10-15T17:51:29.717Z,28.50
2022-10-15T17:54:03.418Z,28.90
2022-10-15T17:56:35.290Z,29.20
2022-10-15T17:59:05.514Z,29.13
2022-10-15T18:04:31.051Z,29.60
2022-10-15T18:06:59.116Z,29.88
2022-10-15T18:09:28.348Z,31.90
2022-10-15T18:12:00.558Z,29.98
2022-10-15T18:14:30.070Z,32.00
2022-10-15T18:16:58.765Z,32.08
2022-10-15T18:19:27.087Z,29.80
2022-10-15T18:21:55.922Z,33.10
2022-10-15T18:24:23.917Z,31.80
2022-10-15T18:26:52.581Z,31.10
2022-10-15T18:29:20.789Z,31.35
2022-10-15T18:31:52.201Z,31.55
2022-10-15T18:34:22.811Z,29.88
2022-10-15T18:36:50.758Z,30.90
2022-10-15T18:39:18.538Z,30.65
2022-10-15T18:41:46.508Z,29.48
2022-10-15T18:44:17.631Z,30.30
2022-10-15T18:46:45.939Z,30.60
2022-10-15T18:49:15.828Z,29.42
2022-10-15T18:51:46.192Z,29.92
2022-10-15T18:54:14.526Z,28.52
2022-10-15T18:56:42.407Z,28.85
2022-10-15T18:59:10.136Z,30.00
2022-10-15T19:01:43.212Z,29.45
2022-10-15T19:04:15.934Z,28.73
2022-10-15T19:06:49.871Z,28.87
2022-10-15T19:09:24.170Z,29.27
2022-10-15T19:11:54.240Z,28.67
2022-10-15T19:14:22.982Z,28.98
2022-10-15T19:16:51.424Z,27.85
2022-10-15T19:19:22.039Z,29.67
2022-10-15T19:21:51.851Z,27.13
2022-10-15T19:24:21.503Z,28.98
2022-10-15T19:26:51.119Z,27.80
2022-10-15T19:29:19.843Z,29.23
2022-10-15T19:31:49.769Z,28.95
2022-10-15T19:34:17.625Z,28.92
2022-10-15T19:36:47.744Z,28.70
2022-10-15T19:39:19.088Z,28.23
2022-10-15T19:41:47.584Z,27.98
2022-10-15T19:44:19.464Z,27.88
2022-10-15T19:46:47.406Z,27.75
2022-10-15T19:49:15.748Z,27.80
2022-10-15T19:51:46.371Z,28.60
2022-10-15T19:54:14.306Z,29.25
2022-10-15T19:56:42.771Z,29.02
2022-10-15T19:59:12.008Z,27.60
2022-10-15T20:01:39.978Z,27.02
2022-10-15T20:04:08.099Z,26.05
2022-10-15T20:06:38.547Z,27.27
2022-10-15T20:09:07.791Z,26.27
2022-10-15T20:11:36.072Z,25.05
2022-10-15T20:14:03.985Z,24.88
2022-10-15T20:16:33.400Z,25.85
2022-10-15T20:19:03.316Z,24.63
2022-10-15T20:21:32.092Z,24.80
2022-10-15T20:24:03.891Z,23.67
2022-10-15T20:26:32.443Z,23.60
2022-10-15T20:29:00.345Z,23.88
2022-10-15T20:31:32.674Z,24.55
2022-10-15T20:34:01.062Z,23.98
2022-10-15T20:36:29.048Z,22.45
2022-10-15T20:38:58.561Z,23.15
2022-10-15T20:41:26.459Z,24.05
2022-10-15T20:43:55.850Z,22.65
2022-10-15T20:46:31.758Z,22.40
2022-10-15T20:49:08.804Z,21.65
2022-10-15T20:51:40.052Z,22.38
2022-10-15T20:54:09.011Z,20.02
2022-10-15T20:56:36.992Z,21.42
2022-10-15T20:59:05.363Z,21.35
2022-10-15T21:01:34.383Z,23.13
2022-10-15T21:04:02.935Z,22.75
2022-10-15T21:06:30.983Z,23.27
2022-10-15T21:08:58.712Z,22.52
2022-10-15T21:11:26.677Z,22.98
2022-10-15T21:13:54.507Z,22.35
2022-10-15T21:16:25.917Z,22.27
2022-10-15T21:18:56.169Z,21.50
2022-10-15T21:21:24.066Z,21.73
2022-10-15T21:23:51.758Z,21.40
2022-10-15T21:26:20.686Z,22.67
2022-10-15T21:28:53.129Z,23.17
2022-10-15T21:31:21.114Z,22.80
2022-10-15T21:33:48.846Z,23.40
2022-10-15T21:36:26.389Z,23.67
2022-10-15T21:38:55.563Z,23.25
2022-10-15T21:41:24.719Z,23.52
2022-10-15T21:43:53.081Z,23.73
2022-10-15T21:46:21.156Z,23.98
2022-10-15T21:48:49.580Z,24.42
2022-10-15T21:51:29.468Z,23.63
2022-10-15T21:53:58.801Z,23.48
2022-10-15T21:56:27.156Z,23.67
2022-10-15T21:58:55.426Z,24.45
2022-10-15T22:01:27.868Z,24.15
2022-10-15T22:04:00.529Z,23.88
2022-10-15T22:06:28.986Z,23.92
2022-10-15T22:08:58.279Z,23.65
2022-10-15T22:11:28.927Z,24.17
2022-10-15T22:14:00.340Z,24.73
2022-10-15T22:16:29.921Z,23.63
2022-10-15T22:18:57.839Z,23.92
2022-10-15T22:21:31.387Z,22.85
2022-10-15T22:24:01.524Z,24.85
2022-10-15T22:26:35.082Z,24.27
2022-10-15T22:29:04.446Z,24.25
2022-10-15T22:31:33.448Z,25.67
2022-10-15T22:34:01.724Z,24.90
2022-10-15T22:36:31.191Z,24.45
2022-10-15T22:39:04.958Z,23.90
2022-10-15T22:41:39.925Z,23.90
2022-10-15T22:44:09.478Z,23.17
2022-10-15T22:46:39.134Z,22.52
2022-10-15T22:49:08.492Z,21.75
2022-10-15T22:51:36.417Z,19.85
2022-10-15T22:54:04.565Z,21.45
2022-10-15T22:56:33.240Z,20.17
2022-10-15T22:59:01.106Z,19.00
2022-10-15T23:01:31.428Z,19.88
2022-10-15T23:04:03.522Z,18.38
2022-10-15T23:06:34.558Z,18.63
2022-10-15T23:09:03.811Z,17.23
2022-10-15T23:11:33.395Z,17.65
2022-10-15T23:14:07.301Z,18.13
2022-10-15T23:19:21.661Z,17.70
2022-10-15T23:21:51.318Z,17.25
2022-10-15T23:24:22.003Z,18.15
2022-10-15T23:26:50.449Z,17.02
2022-10-15T23:29:23.980Z,17.33
2022-10-15T23:31:52.450Z,17.35
2022-10-15T23:34:25.190Z,17.23
2022-10-15T23:36:53.418Z,18.02
2022-10-15T23:39:23.856Z,17.50
2022-10-15T23:41:52.109Z,17.05
2022-10-15T23:44:20.240Z,17.77
2022-10-15T23:46:48.147Z,17.60
2022-10-15T23:49:16.917Z,18.98
2022-10-15T23:51:44.746Z,17.98
2022-10-15T23:54:18.201Z,18.63
2022-10-15T23:56:47.542Z,18.48
2022-10-15T23:59:17.090Z,18.98
